sensor_id;sensor_type;location;lat;lon;timestamp;P1;durP1;ratioP1;P2;durP2;ratioP2
20177;SDS011;10248;51.218;20.866;2022-09-09T00:01:37;4.55;;;4.35;;
20177;SDS011;10248;51.218;20.866;2022-09-09T00:04:12;4.35;;;4.15;;
20177;SDS011;10248;51.218;20.866;2022-09-09T00:06:43;4.18;;;4.07;;
20177;SDS011;10248;51.218;20.866;2022-09-09T00:09:15;4.35;;;4.20;;
20177;SDS011;10248;51.218;20.866;2022-09-09T00:11:45;4.63;;;4.43;;
20177;SDS011;10248;51.218;20.866;2022-09-09T00:14:20;4.40;;;4.20;;
20177;SDS011;10248;51.218;20.866;2022-09-09T00:16:52;4.35;;;4.18;;
20177;SDS011;10248;51.218;20.866;2022-09-09T00:19:23;4.88;;;4.68;;
20177;SDS011;10248;51.218;20.866;2022-09-09T00:22:07;4.55;;;4.35;;
20177;SDS011;10248;51.218;20.866;2022-09-09T00:24:42;4.50;;;4.30;;
20177;SDS011;10248;51.218;20.866;2022-09-09T00:27:14;4.40;;;4.22;;
20177;SDS011;10248;51.218;20.866;2022-09-09T00:29:47;3.92;;;3.83;;
20177;SDS011;10248;51.218;20.866;2022-09-09T00:32:21;4.22;;;4.10;;
20177;SDS011;10248;51.218;20.866;2022-09-09T00:34:49;3.78;;;3.67;;
20177;SDS011;10248;51.218;20.866;2022-09-09T00:37:19;3.67;;;3.58;;
20177;SDS011;10248;51.218;20.866;2022-09-09T00:39:47;3.78;;;3.67;;
20177;SDS011;10248;51.218;20.866;2022-09-09T00:42:16;3.55;;;3.45;;
20177;SDS011;10248;51.218;20.866;2022-09-09T00:44:58;3.90;;;3.80;;
20177;SDS011;10248;51.218;20.866;2022-09-09T00:47:36;3.65;;;3.55;;
20177;SDS011;10248;51.218;20.866;2022-09-09T00:50:12;3.85;;;3.75;;
20177;SDS011;10248;51.218;20.866;2022-09-09T00:52:46;4.05;;;3.95;;
20177;SDS011;10248;51.218;20.866;2022-09-09T00:55:19;4.00;;;3.90;;
20177;SDS011;10248;51.218;20.866;2022-09-09T00:57:51;3.60;;;3.50;;
20177;SDS011;10248;51.218;20.866;2022-09-09T01:00:22;4.00;;;3.90;;
20177;SDS011;10248;51.218;20.866;2022-09-09T01:02:53;3.78;;;3.67;;
20177;SDS011;10248;51.218;20.866;2022-09-09T01:05:36;3.88;;;3.78;;
20177;SDS011;10248;51.218;20.866;2022-09-09T01:08:10;3.38;;;3.28;;
20177;SDS011;10248;51.218;20.866;2022-09-09T01:10:44;3.78;;;3.67;;
20177;SDS011;10248;51.218;20.866;2022-09-09T01:15:46;3.78;;;3.67;;
20177;SDS011;10248;51.218;20.866;2022-09-09T01:18:15;3.88;;;3.78;;
20177;SDS011;10248;51.218;20.866;2022-09-09T01:20:47;3.45;;;3.35;;
20177;SDS011;10248;51.218;20.866;2022-09-09T01:23:24;3.85;;;3.75;;
20177;SDS011;10248;51.218;20.866;2022-09-09T01:26:22;3.72;;;3.63;;
20177;SDS011;10248;51.218;20.866;2022-09-09T01:28:53;3.42;;;3.33;;
20177;SDS011;10248;51.218;20.866;2022-09-09T01:31:22;3.95;;;3.85;;
20177;SDS011;10248;51.218;20.866;2022-09-09T01:33:54;3.50;;;3.40;;
20177;SDS011;10248;51.218;20.866;2022-09-09T01:36:24;3.80;;;3.70;;
20177;SDS011;10248;51.218;20.866;2022-09-09T01:38:55;3.67;;;3.58;;
20177;SDS011;10248;51.218;20.866;2022-09-09T01:41:24;3.50;;;3.40;;
20177;SDS011;10248;51.218;20.866;2022-09-09T01:43:52;3.35;;;3.25;;
20177;SDS011;10248;51.218;20.866;2022-09-09T01:46:21;3.60;;;3.50;;
20177;SDS011;10248;51.218;20.866;2022-09-09T01:48:50;3.80;;;3.70;;
20177;SDS011;10248;51.218;20.866;2022-09-09T01:51:18;3.33;;;3.22;;
20177;SDS011;10248;51.218;20.866;2022-09-09T01:53:46;3.63;;;3.53;;
20177;SDS011;10248;51.218;20.866;2022-09-09T01:56:17;3.40;;;3.30;;
20177;SDS011;10248;51.218;20.866;2022-09-09T01:59:02;3.50;;;3.40;;
20177;SDS011;10248;51.218;20.866;2022-09-09T02:01:39;3.90;;;3.80;;
20177;SDS011;10248;51.218;20.866;2022-09-09T02:04:14;3.65;;;3.55;;
20177;SDS011;10248;51.218;20.866;2022-09-09T02:06:46;3.70;;;3.60;;
20177;SDS011;10248;51.218;20.866;2022-09-09T02:09:15;3.30;;;3.20;;
20177;SDS011;10248;51.218;20.866;2022-09-09T02:11:46;3.50;;;3.40;;
20177;SDS011;10248;51.218;20.866;2022-09-09T02:14:18;3.53;;;3.42;;
20177;SDS011;10248;51.218;20.866;2022-09-09T02:16:50;3.47;;;3.38;;
20177;SDS011;10248;51.218;20.866;2022-09-09T02:19:21;3.83;;;3.73;;
20177;SDS011;10248;51.218;20.866;2022-09-09T02:21:52;3.70;;;3.60;;
20177;SDS011;10248;51.218;20.866;2022-09-09T02:24:21;3.55;;;3.45;;
20177;SDS011;10248;51.218;20.866;2022-09-09T02:26:50;3.83;;;3.72;;
20177;SDS011;10248;51.218;20.866;2022-09-09T02:29:21;3.58;;;3.47;;
20177;SDS011;10248;51.218;20.866;2022-09-09T02:31:51;3.35;;;3.25;;
20177;SDS011;10248;51.218;20.866;2022-09-09T02:34:21;3.78;;;3.67;;
20177;SDS011;10248;51.218;20.866;2022-09-09T02:36:50;3.60;;;3.50;;
20177;SDS011;10248;51.218;20.866;2022-09-09T02:39:19;3.60;;;3.50;;
20177;SDS011;10248;51.218;20.866;2022-09-09T02:41:47;3.70;;;3.60;;
20177;SDS011;10248;51.218;20.866;2022-09-09T02:44:16;3.60;;;3.50;;
20177;SDS011;10248;51.218;20.866;2022-09-09T02:46:53;3.60;;;3.50;;
20177;SDS011;10248;51.218;20.866;2022-09-09T02:49:28;3.60;;;3.50;;
20177;SDS011;10248;51.218;20.866;2022-09-09T02:52:04;3.22;;;3.13;;
20177;SDS011;10248;51.218;20.866;2022-09-09T02:54:34;2.92;;;2.83;;
20177;SDS011;10248;51.218;20.866;2022-09-09T02:57:04;3.50;;;3.40;;
20177;SDS011;10248;51.218;20.866;2022-09-09T02:59:34;3.20;;;3.10;;
20177;SDS011;10248;51.218;20.866;2022-09-09T03:02:03;3.40;;;3.30;;
20177;SDS011;10248;51.218;20.866;2022-09-09T03:04:31;3.28;;;3.17;;
20177;SDS011;10248;51.218;20.866;2022-09-09T03:06:59;3.40;;;3.30;;
20177;SDS011;10248;51.218;20.866;2022-09-09T03:09:26;3.60;;;3.50;;
20177;SDS011;10248;51.218;20.866;2022-09-09T03:11:54;3.20;;;3.10;;
20177;SDS011;10248;51.218;20.866;2022-09-09T03:14:22;3.15;;;3.05;;
20177;SDS011;10248;51.218;20.866;2022-09-09T03:16:51;3.10;;;3.00;;
20177;SDS011;10248;51.218;20.866;2022-09-09T03:19:20;3.30;;;3.20;;
20177;SDS011;10248;51.218;20.866;2022-09-09T03:21:48;3.50;;;3.40;;
20177;SDS011;10248;51.218;20.866;2022-09-09T03:24:16;3.38;;;3.28;;
20177;SDS011;10248;51.218;20.866;2022-09-09T03:26:43;3.28;;;3.17;;
20177;SDS011;10248;51.218;20.866;2022-09-09T03:29:11;3.53;;;3.42;;
20177;SDS011;10248;51.218;20.866;2022-09-09T03:31:40;3.45;;;3.35;;
20177;SDS011;10248;51.218;20.866;2022-09-09T03:34:09;3.30;;;3.20;;
20177;SDS011;10248;51.218;20.866;2022-09-09T03:36:38;3.40;;;3.30;;
20177;SDS011;10248;51.218;20.866;2022-09-09T03:39:07;3.30;;;3.20;;
20177;SDS011;10248;51.218;20.866;2022-09-09T03:41:34;3.35;;;3.25;;
20177;SDS011;10248;51.218;20.866;2022-09-09T03:44:03;3.40;;;3.30;;
20177;SDS011;10248;51.218;20.866;2022-09-09T03:46:31;3.60;;;3.50;;
20177;SDS011;10248;51.218;20.866;2022-09-09T03:48:59;3.67;;;3.58;;
20177;SDS011;10248;51.218;20.866;2022-09-09T03:51:27;2.90;;;2.80;;
20177;SDS011;10248;51.218;20.866;2022-09-09T03:53:56;3.17;;;3.08;;
20177;SDS011;10248;51.218;20.866;2022-09-09T03:56:24;3.40;;;3.30;;
20177;SDS011;10248;51.218;20.866;2022-09-09T03:58:52;3.00;;;2.90;;
20177;SDS011;10248;51.218;20.866;2022-09-09T04:01:20;3.10;;;3.00;;
20177;SDS011;10248;51.218;20.866;2022-09-09T04:03:47;3.08;;;2.97;;
20177;SDS011;10248;51.218;20.866;2022-09-09T04:06:16;2.97;;;2.88;;
20177;SDS011;10248;51.218;20.866;2022-09-09T04:08:44;3.08;;;2.97;;
20177;SDS011;10248;51.218;20.866;2022-09-09T04:11:16;3.20;;;3.10;;
20177;SDS011;10248;51.218;20.866;2022-09-09T04:13:44;3.20;;;3.10;;
20177;SDS011;10248;51.218;20.866;2022-09-09T04:16:12;3.30;;;3.20;;
20177;SDS011;10248;51.218;20.866;2022-09-09T04:18:41;3.40;;;3.30;;
20177;SDS011;10248;51.218;20.866;2022-09-09T04:21:08;3.33;;;3.22;;
20177;SDS011;10248;51.218;20.866;2022-09-09T04:23:38;3.60;;;3.50;;
20177;SDS011;10248;51.218;20.866;2022-09-09T04:26:06;3.58;;;3.47;;
20177;SDS011;10248;51.218;20.866;2022-09-09T04:28:36;3.58;;;3.47;;
20177;SDS011;10248;51.218;20.866;2022-09-09T04:31:05;3.45;;;3.35;;
20177;SDS011;10248;51.218;20.866;2022-09-09T04:33:34;3.40;;;3.30;;
20177;SDS011;10248;51.218;20.866;2022-09-09T04:36:05;3.50;;;3.40;;
20177;SDS011;10248;51.218;20.866;2022-09-09T04:38:34;3.17;;;3.08;;
20177;SDS011;10248;51.218;20.866;2022-09-09T04:41:01;3.40;;;3.30;;
20177;SDS011;10248;51.218;20.866;2022-09-09T04:43:29;3.20;;;3.10;;
20177;SDS011;10248;51.218;20.866;2022-09-09T04:45:59;3.40;;;3.30;;
20177;SDS011;10248;51.218;20.866;2022-09-09T04:48:27;3.30;;;3.20;;
20177;SDS011;10248;51.218;20.866;2022-09-09T04:50:55;3.40;;;3.30;;
20177;SDS011;10248;51.218;20.866;2022-09-09T04:53:24;3.42;;;3.33;;
20177;SDS011;10248;51.218;20.866;2022-09-09T04:55:52;3.40;;;3.30;;
20177;SDS011;10248;51.218;20.866;2022-09-09T04:58:20;3.20;;;3.10;;
20177;SDS011;10248;51.218;20.866;2022-09-09T05:00:49;3.33;;;3.22;;
20177;SDS011;10248;51.218;20.866;2022-09-09T05:03:19;3.50;;;3.40;;
20177;SDS011;10248;51.218;20.866;2022-09-09T05:05:52;3.22;;;3.13;;
20177;SDS011;10248;51.218;20.866;2022-09-09T05:08:20;3.38;;;3.28;;
20177;SDS011;10248;51.218;20.866;2022-09-09T05:10:49;3.33;;;3.22;;
20177;SDS011;10248;51.218;20.866;2022-09-09T05:13:16;3.08;;;2.97;;
20177;SDS011;10248;51.218;20.866;2022-09-09T05:15:50;3.33;;;3.22;;
20177;SDS011;10248;51.218;20.866;2022-09-09T05:18:22;3.17;;;3.08;;
20177;SDS011;10248;51.218;20.866;2022-09-09T05:20:49;3.38;;;3.28;;
20177;SDS011;10248;51.218;20.866;2022-09-09T05:23:18;3.40;;;3.30;;
20177;SDS011;10248;51.218;20.866;2022-09-09T05:25:54;3.33;;;3.22;;
20177;SDS011;10248;51.218;20.866;2022-09-09T05:28:23;3.30;;;3.20;;
20177;SDS011;10248;51.218;20.866;2022-09-09T05:30:55;3.50;;;3.40;;
20177;SDS011;10248;51.218;20.866;2022-09-09T05:33:25;3.40;;;3.30;;
20177;SDS011;10248;51.218;20.866;2022-09-09T05:35:57;3.33;;;3.22;;
20177;SDS011;10248;51.218;20.866;2022-09-09T05:38:25;3.65;;;3.55;;
20177;SDS011;10248;51.218;20.866;2022-09-09T05:40:54;3.50;;;3.40;;
20177;SDS011;10248;51.218;20.866;2022-09-09T05:43:23;3.40;;;3.30;;
20177;SDS011;10248;51.218;20.866;2022-09-09T05:45:58;3.40;;;3.30;;
20177;SDS011;10248;51.218;20.866;2022-09-09T05:48:30;3.35;;;3.25;;
20177;SDS011;10248;51.218;20.866;2022-09-09T05:50:58;3.40;;;3.30;;
20177;SDS011;10248;51.218;20.866;2022-09-09T05:53:27;3.40;;;3.30;;
20177;SDS011;10248;51.218;20.866;2022-09-09T05:55:59;3.60;;;3.50;;
20177;SDS011;10248;51.218;20.866;2022-09-09T05:58:29;3.35;;;3.25;;
20177;SDS011;10248;51.218;20.866;2022-09-09T06:01:01;3.30;;;3.20;;
20177;SDS011;10248;51.218;20.866;2022-09-09T06:03:31;3.50;;;3.40;;
20177;SDS011;10248;51.218;20.866;2022-09-09T06:05:59;3.47;;;3.38;;
20177;SDS011;10248;51.218;20.866;2022-09-09T06:08:32;3.30;;;3.20;;
20177;SDS011;10248;51.218;20.866;2022-09-09T06:11:02;3.22;;;3.13;;
20177;SDS011;10248;51.218;20.866;2022-09-09T06:13:30;3.30;;;3.20;;
20177;SDS011;10248;51.218;20.866;2022-09-09T06:15:58;3.40;;;3.30;;
20177;SDS011;10248;51.218;20.866;2022-09-09T06:18:26;3.10;;;3.00;;
20177;SDS011;10248;51.218;20.866;2022-09-09T06:20:58;3.00;;;2.90;;
20177;SDS011;10248;51.218;20.866;2022-09-09T06:23:27;3.40;;;3.30;;
20177;SDS011;10248;51.218;20.866;2022-09-09T06:26:02;3.13;;;3.03;;
20177;SDS011;10248;51.218;20.866;2022-09-09T06:28:31;3.10;;;3.00;;
20177;SDS011;10248;51.218;20.866;2022-09-09T06:30:59;3.40;;;3.30;;
20177;SDS011;10248;51.218;20.866;2022-09-09T06:33:30;3.13;;;3.03;;
20177;SDS011;10248;51.218;20.866;2022-09-09T06:35:59;3.28;;;3.17;;
20177;SDS011;10248;51.218;20.866;2022-09-09T06:38:30;3.40;;;3.30;;
20177;SDS011;10248;51.218;20.866;2022-09-09T06:40:58;3.40;;;3.30;;
20177;SDS011;10248;51.218;20.866;2022-09-09T06:43:28;3.30;;;3.20;;
20177;SDS011;10248;51.218;20.866;2022-09-09T06:45:56;3.40;;;3.30;;
20177;SDS011;10248;51.218;20.866;2022-09-09T06:48:25;3.40;;;3.30;;
20177;SDS011;10248;51.218;20.866;2022-09-09T06:51:02;3.50;;;3.40;;
20177;SDS011;10248;51.218;20.866;2022-09-09T06:53:31;3.50;;;3.40;;
20177;SDS011;10248;51.218;20.866;2022-09-09T06:56:00;3.10;;;3.00;;
20177;SDS011;10248;51.218;20.866;2022-09-09T06:58:28;3.40;;;3.30;;
20177;SDS011;10248;51.218;20.866;2022-09-09T07:01:01;3.30;;;3.20;;
20177;SDS011;10248;51.218;20.866;2022-09-09T07:03:30;3.30;;;3.20;;
20177;SDS011;10248;51.218;20.866;2022-09-09T07:05:58;3.47;;;3.38;;
20177;SDS011;10248;51.218;20.866;2022-09-09T07:08:28;3.40;;;3.30;;
20177;SDS011;10248;51.218;20.866;2022-09-09T07:11:01;3.40;;;3.30;;
20177;SDS011;10248;51.218;20.866;2022-09-09T07:13:36;3.35;;;3.25;;
20177;SDS011;10248;51.218;20.866;2022-09-09T07:16:04;3.40;;;3.30;;
20177;SDS011;10248;51.218;20.866;2022-09-09T07:18:34;3.55;;;3.45;;
20177;SDS011;10248;51.218;20.866;2022-09-09T07:21:05;3.15;;;3.05;;
20177;SDS011;10248;51.218;20.866;2022-09-09T07:28:36;3.10;;;3.00;;
20177;SDS011;10248;51.218;20.866;2022-09-09T07:31:07;3.25;;;3.15;;
20177;SDS011;10248;51.218;20.866;2022-09-09T07:33:41;3.45;;;3.35;;
20177;SDS011;10248;51.218;20.866;2022-09-09T07:36:10;3.38;;;3.28;;
20177;SDS011;10248;51.218;20.866;2022-09-09T07:38:42;3.38;;;3.28;;
20177;SDS011;10248;51.218;20.866;2022-09-09T07:41:12;3.50;;;3.40;;
20177;SDS011;10248;51.218;20.866;2022-09-09T07:43:44;3.60;;;3.50;;
20177;SDS011;10248;51.218;20.866;2022-09-09T07:46:14;3.30;;;3.20;;
20177;SDS011;10248;51.218;20.866;2022-09-09T07:48:43;3.30;;;3.20;;
20177;SDS011;10248;51.218;20.866;2022-09-09T07:51:12;3.30;;;3.20;;
20177;SDS011;10248;51.218;20.866;2022-09-09T07:53:47;3.60;;;3.50;;
20177;SDS011;10248;51.218;20.866;2022-09-09T07:56:16;3.33;;;3.22;;
20177;SDS011;10248;51.218;20.866;2022-09-09T07:58:45;3.65;;;3.55;;
20177;SDS011;10248;51.218;20.866;2022-09-09T08:01:22;2.97;;;2.88;;
20177;SDS011;10248;51.218;20.866;2022-09-09T08:03:53;3.40;;;3.30;;
20177;SDS011;10248;51.218;20.866;2022-09-09T08:06:22;3.60;;;3.50;;
20177;SDS011;10248;51.218;20.866;2022-09-09T08:08:52;3.50;;;3.40;;
20177;SDS011;10248;51.218;20.866;2022-09-09T08:11:21;3.70;;;3.60;;
20177;SDS011;10248;51.218;20.866;2022-09-09T08:13:51;3.60;;;3.50;;
20177;SDS011;10248;51.218;20.866;2022-09-09T08:16:25;3.25;;;3.15;;
20177;SDS011;10248;51.218;20.866;2022-09-09T08:18:54;3.30;;;3.20;;
20177;SDS011;10248;51.218;20.866;2022-09-09T08:21:22;3.60;;;3.50;;
20177;SDS011;10248;51.218;20.866;2022-09-09T08:23:55;3.90;;;3.80;;
20177;SDS011;10248;51.218;20.866;2022-09-09T08:26:24;3.60;;;3.50;;
20177;SDS011;10248;51.218;20.866;2022-09-09T08:28:55;3.15;;;3.05;;
20177;SDS011;10248;51.218;20.866;2022-09-09T08:31:25;3.60;;;3.50;;
20177;SDS011;10248;51.218;20.866;2022-09-09T08:33:54;3.50;;;3.40;;
20177;SDS011;10248;51.218;20.866;2022-09-09T08:36:22;3.50;;;3.40;;
20177;SDS011;10248;51.218;20.866;2022-09-09T08:38:53;3.40;;;3.30;;
20177;SDS011;10248;51.218;20.866;2022-09-09T08:41:32;3.80;;;3.70;;
20177;SDS011;10248;51.218;20.866;2022-09-09T08:44:07;3.38;;;3.28;;
20177;SDS011;10248;51.218;20.866;2022-09-09T08:46:41;3.30;;;3.20;;
20177;SDS011;10248;51.218;20.866;2022-09-09T08:49:17;3.28;;;3.17;;
20177;SDS011;10248;51.218;20.866;2022-09-09T08:51:52;3.47;;;3.38;;
20177;SDS011;10248;51.218;20.866;2022-09-09T08:54:23;3.75;;;3.65;;
20177;SDS011;10248;51.218;20.866;2022-09-09T08:57:11;3.50;;;3.40;;
20177;SDS011;10248;51.218;20.866;2022-09-09T08:59:42;3.40;;;3.30;;
20177;SDS011;10248;51.218;20.866;2022-09-09T09:02:13;3.30;;;3.20;;
20177;SDS011;10248;51.218;20.866;2022-09-09T09:04:50;3.40;;;3.30;;
20177;SDS011;10248;51.218;20.866;2022-09-09T09:07:28;3.50;;;3.40;;
20177;SDS011;10248;51.218;20.866;2022-09-09T09:10:04;3.80;;;3.70;;
20177;SDS011;10248;51.218;20.866;2022-09-09T09:12:56;3.40;;;3.30;;
20177;SDS011;10248;51.218;20.866;2022-09-09T09:15:25;3.15;;;3.05;;
20177;SDS011;10248;51.218;20.866;2022-09-09T09:17:57;3.28;;;3.17;;
20177;SDS011;10248;51.218;20.866;2022-09-09T09:20:27;3.20;;;3.10;;
20177;SDS011;10248;51.218;20.866;2022-09-09T09:25:27;3.50;;;3.40;;
20177;SDS011;10248;51.218;20.866;2022-09-09T09:28:00;3.80;;;3.70;;
20177;SDS011;10248;51.218;20.866;2022-09-09T09:30:34;3.83;;;3.72;;
20177;SDS011;10248;51.218;20.866;2022-09-09T09:33:05;3.83;;;3.72;;
20177;SDS011;10248;51.218;20.866;2022-09-09T09:35:36;3.35;;;3.25;;
20177;SDS011;10248;51.218;20.866;2022-09-09T09:38:12;3.40;;;3.30;;
20177;SDS011;10248;51.218;20.866;2022-09-09T09:41:05;3.60;;;3.50;;
20177;SDS011;10248;51.218;20.866;2022-09-09T09:43:34;3.50;;;3.40;;
20177;SDS011;10248;51.218;20.866;2022-09-09T09:46:03;3.38;;;3.28;;
20177;SDS011;10248;51.218;20.866;2022-09-09T09:48:43;3.40;;;3.30;;
20177;SDS011;10248;51.218;20.866;2022-09-09T09:51:13;3.40;;;3.30;;
20177;SDS011;10248;51.218;20.866;2022-09-09T09:53:42;3.40;;;3.30;;
20177;SDS011;10248;51.218;20.866;2022-09-09T09:56:11;3.38;;;3.28;;
20177;SDS011;10248;51.218;20.866;2022-09-09T09:58:47;3.55;;;3.45;;
20177;SDS011;10248;51.218;20.866;2022-09-09T10:01:20;3.50;;;3.40;;
20177;SDS011;10248;51.218;20.866;2022-09-09T10:06:28;3.60;;;3.50;;
20177;SDS011;10248;51.218;20.866;2022-09-09T10:08:57;3.80;;;3.70;;
20177;SDS011;10248;51.218;20.866;2022-09-09T10:11:29;4.00;;;3.90;;
20177;SDS011;10248;51.218;20.866;2022-09-09T10:14:04;4.00;;;3.90;;
20177;SDS011;10248;51.218;20.866;2022-09-09T10:16:41;3.80;;;3.70;;
20177;SDS011;10248;51.218;20.866;2022-09-09T10:19:15;3.70;;;3.60;;
20177;SDS011;10248;51.218;20.866;2022-09-09T10:24:54;3.85;;;3.75;;
20177;SDS011;10248;51.218;20.866;2022-09-09T10:27:38;3.22;;;3.13;;
20177;SDS011;10248;51.218;20.866;2022-09-09T10:30:14;3.47;;;3.38;;
20177;SDS011;10248;51.218;20.866;2022-09-09T10:32:48;3.80;;;3.70;;
20177;SDS011;10248;51.218;20.866;2022-09-09T10:35:30;3.70;;;3.60;;
20177;SDS011;10248;51.218;20.866;2022-09-09T10:38:03;3.70;;;3.60;;
20177;SDS011;10248;51.218;20.866;2022-09-09T10:40:38;3.70;;;3.60;;
20177;SDS011;10248;51.218;20.866;2022-09-09T10:43:15;3.80;;;3.70;;
20177;SDS011;10248;51.218;20.866;2022-09-09T10:45:54;3.58;;;3.47;;
20177;SDS011;10248;51.218;20.866;2022-09-09T10:48:30;3.60;;;3.50;;
20177;SDS011;10248;51.218;20.866;2022-09-09T10:51:02;3.60;;;3.50;;
20177;SDS011;10248;51.218;20.866;2022-09-09T10:53:41;3.67;;;3.58;;
20177;SDS011;10248;51.218;20.866;2022-09-09T10:56:15;3.67;;;3.58;;
20177;SDS011;10248;51.218;20.866;2022-09-09T10:58:46;3.70;;;3.60;;
20177;SDS011;10248;51.218;20.866;2022-09-09T11:01:17;3.78;;;3.67;;
20177;SDS011;10248;51.218;20.866;2022-09-09T11:03:49;3.85;;;3.75;;
20177;SDS011;10248;51.218;20.866;2022-09-09T11:06:22;3.80;;;3.70;;
20177;SDS011;10248;51.218;20.866;2022-09-09T11:08:55;3.70;;;3.60;;
20177;SDS011;10248;51.218;20.866;2022-09-09T11:11:25;3.80;;;3.70;;
20177;SDS011;10248;51.218;20.866;2022-09-09T11:13:57;3.78;;;3.67;;
20177;SDS011;10248;51.218;20.866;2022-09-09T11:16:29;3.60;;;3.50;;
20177;SDS011;10248;51.218;20.866;2022-09-09T11:19:00;3.50;;;3.40;;
20177;SDS011;10248;51.218;20.866;2022-09-09T11:21:33;3.47;;;3.38;;
20177;SDS011;10248;51.218;20.866;2022-09-09T11:24:12;3.67;;;3.58;;
20177;SDS011;10248;51.218;20.866;2022-09-09T11:26:44;3.80;;;3.70;;
20177;SDS011;10248;51.218;20.866;2022-09-09T11:29:36;3.67;;;3.58;;
20177;SDS011;10248;51.218;20.866;2022-09-09T11:32:19;3.75;;;3.65;;
20177;SDS011;10248;51.218;20.866;2022-09-09T11:35:11;3.70;;;3.60;;
20177;SDS011;10248;51.218;20.866;2022-09-09T11:37:56;3.75;;;3.65;;
20177;SDS011;10248;51.218;20.866;2022-09-09T11:40:34;3.53;;;3.42;;
20177;SDS011;10248;51.218;20.866;2022-09-09T11:43:07;3.70;;;3.60;;
20177;SDS011;10248;51.218;20.866;2022-09-09T11:45:40;3.70;;;3.60;;
20177;SDS011;10248;51.218;20.866;2022-09-09T11:48:22;3.75;;;3.65;;
20177;SDS011;10248;51.218;20.866;2022-09-09T11:50:58;3.60;;;3.50;;
20177;SDS011;10248;51.218;20.866;2022-09-09T11:53:27;3.60;;;3.50;;
20177;SDS011;10248;51.218;20.866;2022-09-09T11:56:02;3.40;;;3.30;;
20177;SDS011;10248;51.218;20.866;2022-09-09T11:58:34;3.70;;;3.60;;
20177;SDS011;10248;51.218;20.866;2022-09-09T12:01:24;3.80;;;3.70;;
20177;SDS011;10248;51.218;20.866;2022-09-09T12:04:26;3.80;;;3.70;;
20177;SDS011;10248;51.218;20.866;2022-09-09T12:06:57;3.72;;;3.63;;
20177;SDS011;10248;51.218;20.866;2022-09-09T12:09:28;3.90;;;3.80;;
20177;SDS011;10248;51.218;20.866;2022-09-09T12:12:16;3.70;;;3.60;;
20177;SDS011;10248;51.218;20.866;2022-09-09T12:15:00;3.60;;;3.50;;
20177;SDS011;10248;51.218;20.866;2022-09-09T12:17:32;3.75;;;3.65;;
20177;SDS011;10248;51.218;20.866;2022-09-09T12:20:12;3.80;;;3.70;;
20177;SDS011;10248;51.218;20.866;2022-09-09T12:22:57;3.70;;;3.60;;
20177;SDS011;10248;51.218;20.866;2022-09-09T12:25:43;3.55;;;3.45;;
20177;SDS011;10248;51.218;20.866;2022-09-09T12:28:17;3.70;;;3.60;;
20177;SDS011;10248;51.218;20.866;2022-09-09T12:30:48;3.83;;;3.72;;
20177;SDS011;10248;51.218;20.866;2022-09-09T12:33:22;3.95;;;3.85;;
20177;SDS011;10248;51.218;20.866;2022-09-09T12:35:51;3.88;;;3.78;;
20177;SDS011;10248;51.218;20.866;2022-09-09T12:38:26;3.88;;;3.78;;
20177;SDS011;10248;51.218;20.866;2022-09-09T12:40:59;4.07;;;3.97;;
20177;SDS011;10248;51.218;20.866;2022-09-09T12:43:27;4.07;;;3.97;;
20177;SDS011;10248;51.218;20.866;2022-09-09T12:45:56;3.85;;;3.75;;
20177;SDS011;10248;51.218;20.866;2022-09-09T12:48:33;3.80;;;3.70;;
20177;SDS011;10248;51.218;20.866;2022-09-09T12:51:16;3.78;;;3.67;;
20177;SDS011;10248;51.218;20.866;2022-09-09T12:53:46;3.80;;;3.70;;
20177;SDS011;10248;51.218;20.866;2022-09-09T12:56:18;3.70;;;3.60;;
20177;SDS011;10248;51.218;20.866;2022-09-09T12:58:47;3.70;;;3.60;;
20177;SDS011;10248;51.218;20.866;2022-09-09T13:01:20;3.80;;;3.70;;
20177;SDS011;10248;51.218;20.866;2022-09-09T13:03:51;3.60;;;3.50;;
20177;SDS011;10248;51.218;20.866;2022-09-09T13:06:20;3.65;;;3.55;;
20177;SDS011;10248;51.218;20.866;2022-09-09T13:08:55;3.85;;;3.75;;
20177;SDS011;10248;51.218;20.866;2022-09-09T13:11:25;3.80;;;3.70;;
20177;SDS011;10248;51.218;20.866;2022-09-09T13:13:55;3.83;;;3.72;;
20177;SDS011;10248;51.218;20.866;2022-09-09T13:16:25;3.63;;;3.53;;
20177;SDS011;10248;51.218;20.866;2022-09-09T13:19:01;3.40;;;3.30;;
20177;SDS011;10248;51.218;20.866;2022-09-09T13:21:33;3.80;;;3.70;;
20177;SDS011;10248;51.218;20.866;2022-09-09T13:24:02;3.70;;;3.60;;
20177;SDS011;10248;51.218;20.866;2022-09-09T13:29:09;3.70;;;3.60;;
20177;SDS011;10248;51.218;20.866;2022-09-09T13:31:44;3.85;;;3.75;;
20177;SDS011;10248;51.218;20.866;2022-09-09T13:34:25;4.00;;;3.90;;
20177;SDS011;10248;51.218;20.866;2022-09-09T13:36:55;3.78;;;3.67;;
20177;SDS011;10248;51.218;20.866;2022-09-09T13:39:27;3.88;;;3.78;;
20177;SDS011;10248;51.218;20.866;2022-09-09T13:41:56;4.10;;;4.00;;
20177;SDS011;10248;51.218;20.866;2022-09-09T13:44:25;4.10;;;4.00;;
20177;SDS011;10248;51.218;20.866;2022-09-09T13:47:00;3.92;;;3.83;;
20177;SDS011;10248;51.218;20.866;2022-09-09T13:49:36;4.05;;;3.95;;
20177;SDS011;10248;51.218;20.866;2022-09-09T13:52:05;4.05;;;3.95;;
20177;SDS011;10248;51.218;20.866;2022-09-09T13:54:36;4.10;;;4.00;;
20177;SDS011;10248;51.218;20.866;2022-09-09T13:57:04;3.80;;;3.70;;
20177;SDS011;10248;51.218;20.866;2022-09-09T13:59:33;3.88;;;3.78;;
20177;SDS011;10248;51.218;20.866;2022-09-09T14:02:20;4.05;;;3.95;;
20177;SDS011;10248;51.218;20.866;2022-09-09T14:04:50;4.20;;;4.10;;
20177;SDS011;10248;51.218;20.866;2022-09-09T14:07:21;4.00;;;3.90;;
20177;SDS011;10248;51.218;20.866;2022-09-09T14:09:49;4.00;;;3.90;;
20177;SDS011;10248;51.218;20.866;2022-09-09T14:12:19;4.00;;;3.90;;
20177;SDS011;10248;51.218;20.866;2022-09-09T14:14:48;3.95;;;3.85;;
20177;SDS011;10248;51.218;20.866;2022-09-09T14:17:18;4.00;;;3.90;;
20177;SDS011;10248;51.218;20.866;2022-09-09T14:19:46;3.80;;;3.70;;
20177;SDS011;10248;51.218;20.866;2022-09-09T14:22:15;4.00;;;3.90;;
20177;SDS011;10248;51.218;20.866;2022-09-09T14:24:43;4.10;;;4.00;;
20177;SDS011;10248;51.218;20.866;2022-09-09T14:27:13;3.83;;;3.72;;
20177;SDS011;10248;51.218;20.866;2022-09-09T14:29:41;4.03;;;3.92;;
20177;SDS011;10248;51.218;20.866;2022-09-09T14:32:09;3.90;;;3.80;;
20177;SDS011;10248;51.218;20.866;2022-09-09T14:34:38;4.00;;;3.90;;
20177;SDS011;10248;51.218;20.866;2022-09-09T14:37:06;4.00;;;3.90;;
20177;SDS011;10248;51.218;20.866;2022-09-09T14:39:36;3.80;;;3.70;;
20177;SDS011;10248;51.218;20.866;2022-09-09T14:42:04;3.60;;;3.50;;
20177;SDS011;10248;51.218;20.866;2022-09-09T14:44:33;3.90;;;3.80;;
20177;SDS011;10248;51.218;20.866;2022-09-09T14:47:00;3.90;;;3.80;;
20177;SDS011;10248;51.218;20.866;2022-09-09T14:49:28;4.05;;;3.95;;
20177;SDS011;10248;51.218;20.866;2022-09-09T14:51:56;3.92;;;3.83;;
20177;SDS011;10248;51.218;20.866;2022-09-09T14:54:24;4.13;;;4.03;;
20177;SDS011;10248;51.218;20.866;2022-09-09T14:56:53;4.13;;;4.03;;
20177;SDS011;10248;51.218;20.866;2022-09-09T14:59:21;4.10;;;4.00;;
20177;SDS011;10248;51.218;20.866;2022-09-09T15:01:49;4.03;;;3.92;;
20177;SDS011;10248;51.218;20.866;2022-09-09T15:04:16;4.20;;;4.10;;
20177;SDS011;10248;51.218;20.866;2022-09-09T15:06:44;4.18;;;4.07;;
20177;SDS011;10248;51.218;20.866;2022-09-09T15:09:14;4.10;;;4.00;;
20177;SDS011;10248;51.218;20.866;2022-09-09T15:11:42;4.03;;;3.92;;
20177;SDS011;10248;51.218;20.866;2022-09-09T15:14:12;4.03;;;3.92;;
20177;SDS011;10248;51.218;20.866;2022-09-09T15:16:41;4.10;;;4.00;;
20177;SDS011;10248;51.218;20.866;2022-09-09T15:19:09;4.20;;;4.10;;